»·PEaware :: N5268J KSMX-KBFL

N5268J :: KSMX-KBFL

FLIGHT INFORMATION

Flight Status: Arrived
Operator: Privately registered:
United States
More flights under this callsign
Pilot: John P. (31881)
Aircraft: BEECH AIRCRAFT BONANZA
(BE36)
More flights by this aircraft type
Origin: KSMX Santa Maria Pub/Capt Hancock
United States
Destination: KBFL Meadows
United States
More flights between these airports :: More routes between these airports
Route: SMX FLW BFL
File this flight plan on PilotEdge
Remarks:
Altitude:
(Current/Filed)
5,500ft
Speed:
(Current/Filed)
167kts
Departed: 16-Oct-20 06:45 PM
Arrived: 16-Oct-20 07:21 PM
Distance/Time
Traveled:
6875nm/0:35
Distance/Time
To Go:
Arrived

Flight Plot

Page will automatically refresh every two minutes.

Flight plan parsing failed; only flown route is shown


Map Options




Map Legend


Flown Route
Filed Route
Departure Airport
Arrival Airport
Navaid (VOR, NDB)
Fix

Horizontal Profiles

Position Reports

Time Latitude Longitude Heading Altitude Ground
Speed
16-Oct-20 18:25 34.896436 -120.445406 41 228ft 0kts
16-Oct-20 18:26 34.896436 -120.445406 41 257ft 0kts
16-Oct-20 18:27 34.896436 -120.445406 41 257ft 0kts
16-Oct-20 18:28 34.896436 -120.445406 41 257ft 0kts
16-Oct-20 18:29 34.896436 -120.445405 41 257ft 0kts
16-Oct-20 18:30 34.896436 -120.445406 41 257ft 0kts
16-Oct-20 18:31 34.896436 -120.445406 41 257ft 0kts
16-Oct-20 18:32 34.896436 -120.445406 41 257ft 0kts
16-Oct-20 18:33 34.896436 -120.445406 41 257ft 0kts
16-Oct-20 18:34 34.896436 -120.445406 41 257ft 0kts
16-Oct-20 18:35 34.896436 -120.445406 41 257ft 0kts
16-Oct-20 18:36 34.896436 -120.445406 41 257ft 0kts
16-Oct-20 18:37 34.896436 -120.445406 41 257ft 0kts
16-Oct-20 18:38 34.896436 -120.445406 41 257ft 0kts
16-Oct-20 18:40 34.896436 -120.445406 41 257ft 0kts
16-Oct-20 18:41 34.896437 -120.445405 41 257ft 0kts
16-Oct-20 18:42 34.896765 -120.446476 222 255ft 10kts
16-Oct-20 18:43 34.893251 -120.445267 181 264ft 9kts
16-Oct-20 18:44 34.893054 -120.445457 227 265ft 0kts
16-Oct-20 18:45 34.901021 -120.455888 317 320ft 103kts
16-Oct-20 18:46 34.926124 -120.471073 358 1440ft 113kts
16-Oct-20 18:47 34.935213 -120.450170 111 2822ft 102kts
16-Oct-20 18:48 34.923895 -120.417813 112 3980ft 105kts
16-Oct-20 18:49 34.924853 -120.383367 72 5025ft 108kts
16-Oct-20 18:50 34.937298 -120.344248 68 5515ft 145kts
16-Oct-20 18:51 34.953640 -120.294775 68 5540ft 163kts
16-Oct-20 18:52 34.970630 -120.242869 68 5542ft 165kts
16-Oct-20 18:53 34.987564 -120.190939 68 5541ft 165kts
16-Oct-20 18:54 35.004416 -120.139232 68 5544ft 163kts
16-Oct-20 18:55 35.021124 -120.087841 68 5528ft 161kts
16-Oct-20 18:56 35.037648 -120.036965 68 5538ft 159kts
16-Oct-20 18:57 35.053981 -119.986560 68 5556ft 162kts
16-Oct-20 18:58 35.070457 -119.935627 69 5554ft 160kts
16-Oct-20 18:58 35.084119 -119.893354 69 5558ft 160kts
16-Oct-20 18:59 35.102172 -119.843788 62 5567ft 161kts
16-Oct-20 19:00 35.123041 -119.795211 63 5569ft 162kts
16-Oct-20 19:01 35.143704 -119.746621 63 5585ft 161kts
16-Oct-20 19:02 35.164350 -119.697975 63 5587ft 161kts
16-Oct-20 19:03 35.184873 -119.649590 63 5585ft 160kts
16-Oct-20 19:04 35.205597 -119.600613 63 5590ft 162kts
16-Oct-20 19:05 35.226361 -119.551473 63 5589ft 162kts
16-Oct-20 19:06 35.247221 -119.502080 64 5588ft 163kts
16-Oct-20 19:07 35.266360 -119.456649 64 5595ft 143kts
16-Oct-20 19:08 35.287447 -119.406557 63 4828ft 177kts
16-Oct-20 19:09 35.308454 -119.356558 63 3822ft 160kts
16-Oct-20 19:10 35.328983 -119.307613 63 3573ft 156kts
16-Oct-20 19:11 35.348554 -119.260894 63 3569ft 152kts
16-Oct-20 19:12 35.367945 -119.214549 63 3397ft 153kts
16-Oct-20 19:13 35.393470 -119.177616 37 2440ft 160kts
16-Oct-20 19:14 35.431411 -119.143508 37 2066ft 175kts
16-Oct-20 19:15 35.434686 -119.104906 136 2077ft 131kts
16-Oct-20 19:16 35.406664 -119.072988 136 2065ft 139kts
16-Oct-20 19:17 35.378550 -119.040298 121 2061ft 139kts
16-Oct-20 19:18 35.400583 -119.018496 342 1705ft 120kts
16-Oct-20 19:19 35.424426 -119.044870 314 818ft 110kts
16-Oct-20 19:20 35.438260 -119.059872 78 494ft 12kts
16-Oct-20 19:21 35.437420 -119.058277 132 496ft 16kts
16-Oct-20 19:22 35.431773 -119.051409 134 482ft 32kts
16-Oct-20 19:23 35.431008 -119.049209 35 483ft 0kts
16-Oct-20 19:24 0.000408 0.013975 0 3ft 0kts
16-Oct-20 19:25 0.000408 0.013975 0 3ft 0kts
16-Oct-20 19:26 0.000408 0.013975 0 3ft 0kts
16-Oct-20 19:27 0.000408 0.013975 0 3ft 0kts
16-Oct-20 19:28 0.000408 0.013975 0 3ft 0kts
16-Oct-20 19:29 0.000408 0.013975 0 3ft 0kts
16-Oct-20 19:30 0.000408 0.013975 0 3ft 0kts
16-Oct-20 19:31 0.000408 0.013975 0 3ft 0kts
16-Oct-20 19:32 0.000408 0.013975 0 3ft 0kts
16-Oct-20 19:33 0.000408 0.013975 0 3ft 0kts
16-Oct-20 19:34 0.000408 0.013975 0 3ft 0kts

Navigation Log

Ident Type
Flight plan parsing failed, navigation log unavailable